createdAt,value
2018-07-02T00:00:51.956Z,97995.63
2018-07-02T00:01:56.318Z,97992.05
2018-07-02T00:02:59.220Z,97994.22
2018-07-02T00:04:03.851Z,97992.84
2018-07-02T00:05:07.225Z,97991.09
2018-07-02T00:06:17.140Z,97991.44
2018-07-02T00:07:22.139Z,97994.65
2018-07-02T00:08:25.340Z,97988.56
2018-07-02T00:09:29.956Z,97991.78
2018-07-02T00:10:33.942Z,97993.84
2018-07-02T00:11:42.690Z,97990.09
2018-07-02T00:12:48.039Z,97986.56
2018-07-02T00:13:53.089Z,97986.47
2018-07-02T00:15:03.556Z,97978.09
2018-07-02T00:16:08.456Z,97978.88
2018-07-02T00:17:13.019Z,97979.78
2018-07-02T00:18:17.984Z,97973.28
2018-07-02T00:19:21.162Z,97970.94
2018-07-02T00:20:24.817Z,97973.49
2018-07-02T00:21:30.349Z,97972.73
2018-07-02T00:22:34.467Z,97970.68
2018-07-02T00:23:37.331Z,97968.61
2018-07-02T00:24:40.762Z,97972.31
2018-07-02T00:25:44.408Z,97974.59
2018-07-02T00:26:47.843Z,97974.06
2018-07-02T00:27:50.892Z,97968.94
2018-07-02T00:28:54.478Z,97963.75
2018-07-02T00:29:58.504Z,97968.25
2018-07-02T00:31:02.239Z,97967.28
2018-07-02T00:32:05.425Z,97966.87
2018-07-02T00:33:08.605Z,97962.38
2018-07-02T00:34:16.872Z,97960.47
2018-07-02T00:35:21.457Z,97958.41
2018-07-02T00:36:24.520Z,97963.63
2018-07-02T00:37:30.120Z,97960.75
2018-07-02T00:38:34.682Z,97957.69
2018-07-02T00:39:37.995Z,97961.47
2018-07-02T00:40:42.083Z,97953.72
2018-07-02T00:41:46.357Z,97959.37
2018-07-02T00:42:49.491Z,97956.53
2018-07-02T00:43:53.268Z,97957.28
2018-07-02T00:44:56.361Z,97954.31
2018-07-02T00:45:59.250Z,97955.06
2018-07-02T00:47:05.246Z,97954.03
2018-07-02T00:48:11.541Z,97958.75
2018-07-02T00:49:15.310Z,97953.97
2018-07-02T00:51:29.193Z,97953.69
2018-07-02T00:52:33.491Z,97954.84
2018-07-02T00:53:37.322Z,97959.84
2018-07-02T00:54:40.558Z,97954.50
2018-07-02T00:55:48.897Z,97948.22
2018-07-02T00:56:52.997Z,97953.38
2018-07-02T00:57:57.336Z,97954.38
2018-07-02T00:59:02.480Z,97951.91
2018-07-02T01:00:10.400Z,97957.00
2018-07-02T01:02:25.427Z,97955.87
2018-07-02T01:03:39.586Z,97954.27
2018-07-02T01:06:14.968Z,97951.87
2018-07-02T01:07:18.370Z,97950.71
2018-07-02T01:08:21.242Z,97949.68
2018-07-02T01:09:34.974Z,97950.65
2018-07-02T01:10:37.824Z,97943.05
2018-07-02T01:12:55.374Z,97943.14
2018-07-02T01:14:15.097Z,97943.73
2018-07-02T01:15:18.635Z,97939.76
2018-07-02T01:16:21.724Z,97936.23
2018-07-02T01:17:25.450Z,97937.95
2018-07-02T01:18:28.468Z,97938.61
2018-07-02T01:19:34.365Z,97938.23
2018-07-02T01:20:38.568Z,97941.61
2018-07-02T01:21:43.628Z,97939.61
2018-07-02T01:22:47.159Z,97939.45
2018-07-02T01:23:50.879Z,97938.98
2018-07-02T01:24:58.535Z,97932.19
2018-07-02T01:27:28.873Z,97937.55
2018-07-02T01:28:34.119Z,97937.11
2018-07-02T01:29:38.481Z,97934.88
2018-07-02T01:31:03.482Z,97928.76
2018-07-02T01:32:13.304Z,97935.59
2018-07-02T01:33:23.142Z,97938.47
2018-07-02T01:34:29.775Z,97937.88
2018-07-02T01:35:34.485Z,97941.36
2018-07-02T01:36:37.677Z,97943.10
2018-07-02T01:37:43.650Z,97943.52
2018-07-02T01:38:50.971Z,97943.50
2018-07-02T01:39:55.053Z,97947.39
2018-07-02T01:40:59.005Z,97944.65
2018-07-02T01:42:03.466Z,97940.44
2018-07-02T01:43:08.076Z,97940.45
2018-07-02T01:44:11.460Z,97939.23
2018-07-02T01:45:14.446Z,97947.39
2018-07-02T01:51:17.622Z,97942.42
2018-07-02T01:52:21.788Z,97941.64
2018-07-02T01:53:24.952Z,97943.13
2018-07-02T01:54:28.611Z,97940.12
2018-07-02T01:55:32.527Z,97942.20
2018-07-02T01:56:35.378Z,97944.36
2018-07-02T01:57:41.451Z,97949.52
2018-07-02T01:58:44.324Z,97945.03
2018-07-02T01:59:47.365Z,97943.09
2018-07-02T02:00:50.449Z,97938.23
2018-07-02T02:01:53.310Z,97935.41
2018-07-02T02:03:00.523Z,97939.20
2018-07-02T02:04:04.612Z,97938.45
2018-07-02T02:05:08.117Z,97939.27
2018-07-02T02:06:11.084Z,97933.97
2018-07-02T02:07:14.346Z,97937.31
2018-07-02T02:08:17.377Z,97933.34
2018-07-02T02:09:20.317Z,97928.99
2018-07-02T02:10:23.495Z,97931.96
2018-07-02T02:11:31.231Z,97932.67
2018-07-02T02:12:34.840Z,97935.20
2018-07-02T02:13:39.089Z,97938.90
2018-07-02T02:14:42.286Z,97939.08
2018-07-02T02:15:46.513Z,97943.83
2018-07-02T02:16:49.813Z,97941.76
2018-07-02T02:18:02.664Z,97941.94
2018-07-02T02:19:06.635Z,97950.11
2018-07-02T02:20:09.820Z,97946.55
2018-07-02T02:21:13.398Z,97943.51
2018-07-02T02:22:19.641Z,97947.20
2018-07-02T02:23:22.891Z,97947.48
2018-07-02T02:24:25.940Z,97947.44
2018-07-02T02:25:29.544Z,97946.36
2018-07-02T02:26:32.527Z,97945.92
2018-07-02T02:27:38.497Z,97941.59
2018-07-02T02:28:42.295Z,97945.56
2018-07-02T02:29:47.423Z,97944.09
2018-07-02T02:30:51.642Z,97946.42
2018-07-02T02:31:54.654Z,97944.61
2018-07-02T02:32:58.316Z,97944.91
2018-07-02T02:34:02.898Z,97941.57
2018-07-02T02:35:06.538Z,97947.62
2018-07-02T02:36:09.725Z,97945.84
2018-07-02T02:37:12.531Z,97941.20
2018-07-02T02:38:16.247Z,97945.25
2018-07-02T02:39:19.138Z,97947.36
2018-07-02T02:40:22.030Z,97940.56
2018-07-02T02:41:25.942Z,97945.83
2018-07-02T02:42:30.481Z,97944.47
2018-07-02T02:43:33.478Z,97944.54
2018-07-02T02:44:37.143Z,97953.44
2018-07-02T02:45:40.006Z,97948.44
2018-07-02T02:46:45.737Z,97948.36
2018-07-02T02:47:48.635Z,97943.31
2018-07-02T02:48:51.852Z,97944.46
2018-07-02T02:49:55.649Z,97950.83
2018-07-02T02:50:59.611Z,97942.97
2018-07-02T02:52:02.502Z,97938.55
2018-07-02T02:53:07.839Z,97940.36
2018-07-02T02:54:10.792Z,97944.74
2018-07-02T02:55:15.796Z,97938.62
2018-07-02T02:56:19.151Z,97939.11
2018-07-02T02:57:23.678Z,97937.81
2018-07-02T02:58:26.727Z,97933.14
2018-07-02T02:59:29.614Z,97935.96
2018-07-02T03:00:32.642Z,97939.92
2018-07-02T03:01:35.925Z,97938.19
2018-07-02T03:02:38.903Z,97937.25
2018-07-02T03:03:42.174Z,97940.63
2018-07-02T03:04:45.144Z,97932.25
2018-07-02T03:05:48.201Z,97936.44
2018-07-02T03:06:51.211Z,97938.19
2018-07-02T03:07:54.364Z,97937.33
2018-07-02T03:08:57.311Z,97938.17
2018-07-02T03:10:00.193Z,97938.83
2018-07-02T03:11:03.078Z,97943.42
2018-07-02T03:12:05.952Z,97945.28
2018-07-02T03:13:08.874Z,97946.96
2018-07-02T03:14:12.079Z,97944.22
2018-07-02T03:15:16.442Z,97948.02
2018-07-02T03:16:19.396Z,97941.92
2018-07-02T03:17:23.525Z,97945.45
2018-07-02T03:18:26.649Z,97938.76
2018-07-02T03:19:29.520Z,97941.78
2018-07-02T03:20:32.898Z,97935.79
2018-07-02T03:21:35.901Z,97937.07
2018-07-02T03:22:38.871Z,97943.95
2018-07-02T03:23:42.467Z,97936.66
2018-07-02T03:24:46.245Z,97929.98
2018-07-02T03:25:49.204Z,97936.02
2018-07-02T03:26:52.404Z,97935.01
2018-07-02T03:27:55.271Z,97928.97
2018-07-02T03:28:58.196Z,97929.72
2018-07-02T03:30:01.270Z,97926.64
2018-07-02T03:31:04.383Z,97927.47
2018-07-02T03:32:07.265Z,97922.52
2018-07-02T03:33:13.816Z,97928.37
2018-07-02T03:34:16.906Z,97930.17
2018-07-02T03:35:20.511Z,97931.23
2018-07-02T03:36:23.600Z,97937.37
2018-07-02T03:37:26.576Z,97938.88
2018-07-02T03:38:29.592Z,97943.30
2018-07-02T03:39:32.828Z,97945.23
2018-07-02T03:40:35.793Z,97950.95
2018-07-02T03:41:38.983Z,97948.39
2018-07-02T03:42:41.997Z,97951.27
2018-07-02T03:43:47.350Z,97950.91
2018-07-02T03:44:50.460Z,97943.59
2018-07-02T03:46:00.780Z,97942.64
2018-07-02T03:47:03.763Z,97938.84
2018-07-02T03:48:08.188Z,97937.66
2018-07-02T03:49:11.245Z,97936.24
2018-07-02T03:50:14.642Z,97939.38
2018-07-02T03:51:19.280Z,97941.73
2018-07-02T03:52:22.625Z,97937.66
2018-07-02T03:53:25.707Z,97948.76
2018-07-02T03:54:29.750Z,97950.32
2018-07-02T03:55:32.645Z,97948.57
2018-07-02T03:56:36.300Z,97945.02
2018-07-02T03:57:40.343Z,97947.98
2018-07-02T03:58:45.286Z,97948.95
2018-07-02T03:59:49.494Z,97948.17
2018-07-02T04:00:53.723Z,97950.45
2018-07-02T04:01:56.604Z,97950.27
2018-07-02T04:02:59.658Z,97954.57
2018-07-02T04:04:02.540Z,97951.27
2018-07-02T04:05:05.490Z,97955.52
2018-07-02T04:06:08.493Z,97960.69
2018-07-02T04:07:12.348Z,97962.36
2018-07-02T04:08:15.340Z,97959.22
2018-07-02T04:09:18.240Z,97962.14
2018-07-02T04:10:21.211Z,97960.91
2018-07-02T04:11:24.564Z,97954.97
2018-07-02T04:12:27.731Z,97958.99
2018-07-02T04:13:31.486Z,97957.57
2018-07-02T04:14:35.361Z,97949.93
2018-07-02T04:15:38.228Z,97956.00
2018-07-02T04:16:41.389Z,97951.58
2018-07-02T04:17:44.667Z,97959.22
2018-07-02T04:18:47.641Z,97965.03
2018-07-02T04:19:50.521Z,97963.23
2018-07-02T04:20:53.361Z,97962.06
2018-07-02T04:21:56.709Z,97968.17
2018-07-02T04:22:59.627Z,97969.09
2018-07-02T04:24:09.193Z,97969.68
2018-07-02T04:25:12.381Z,97971.33
2018-07-02T04:26:15.411Z,97970.73
2018-07-02T04:27:18.342Z,97961.88
2018-07-02T04:28:21.323Z,97965.93
2018-07-02T04:29:24.319Z,97965.56
2018-07-02T04:30:29.072Z,97959.53
2018-07-02T04:31:33.599Z,97964.31
2018-07-02T04:32:36.526Z,97963.67
2018-07-02T04:33:39.480Z,97967.87
2018-07-02T04:34:43.596Z,97967.51
2018-07-02T04:35:46.660Z,97966.36
2018-07-02T04:36:51.811Z,97967.06
2018-07-02T04:37:56.977Z,97963.53
2018-07-02T04:39:02.011Z,97961.34
2018-07-02T04:40:04.897Z,97959.58
2018-07-02T04:41:07.907Z,97959.00
2018-07-02T04:42:10.999Z,97959.28
2018-07-02T04:43:14.240Z,97960.93
2018-07-02T04:44:17.761Z,97965.37
2018-07-02T04:45:20.746Z,97964.53
2018-07-02T04:46:23.728Z,97965.87
2018-07-02T04:47:28.465Z,97966.08
2018-07-02T04:48:29.862Z,97970.47
2018-07-02T04:49:33.845Z,97967.59
2018-07-02T04:50:36.834Z,97961.08
2018-07-02T04:51:45.272Z,97961.64
2018-07-02T04:52:48.677Z,97964.42
2018-07-02T04:53:51.572Z,97960.14
2018-07-02T04:54:54.566Z,97961.62
2018-07-02T04:55:57.982Z,97962.18
2018-07-02T04:57:02.074Z,97962.66
2018-07-02T04:58:06.097Z,97962.22
2018-07-02T04:59:09.718Z,97967.22
2018-07-02T05:00:12.626Z,97959.89
2018-07-02T05:01:15.857Z,97965.71
2018-07-02T05:02:20.735Z,97971.73
2018-07-02T05:03:23.633Z,97966.69
2018-07-02T05:04:26.558Z,97972.20
2018-07-02T05:05:29.426Z,97966.08
2018-07-02T05:06:32.366Z,97970.98
2018-07-02T05:07:37.849Z,97972.45
2018-07-02T05:08:41.244Z,97975.20
2018-07-02T05:09:44.117Z,97975.08
2018-07-02T05:10:47.256Z,97972.64
2018-07-02T05:11:50.533Z,97975.17
2018-07-02T05:12:54.152Z,97979.48
2018-07-02T05:13:59.267Z,97975.38
2018-07-02T05:15:02.555Z,97979.63
2018-07-02T05:16:05.515Z,97973.30
2018-07-02T05:17:08.563Z,97979.13
2018-07-02T05:18:11.632Z,97982.39
2018-07-02T05:19:15.977Z,97977.83
2018-07-02T05:20:19.092Z,97976.48
2018-07-02T05:21:22.408Z,97973.14
2018-07-02T05:22:25.262Z,97969.10
2018-07-02T05:23:28.268Z,97966.66
2018-07-02T05:24:31.226Z,97965.25
2018-07-02T05:25:34.747Z,97961.50
2018-07-02T05:26:37.723Z,97966.14
2018-07-02T05:27:41.249Z,97966.84
2018-07-02T05:28:44.340Z,97969.89
2018-07-02T05:29:47.406Z,97967.52
2018-07-02T05:30:50.300Z,97964.95
2018-07-02T05:31:53.261Z,97966.91
2018-07-02T05:32:56.768Z,97966.33
2018-07-02T05:34:00.256Z,97966.55
2018-07-02T05:35:03.128Z,97967.02
2018-07-02T05:36:07.393Z,97963.81
2018-07-02T05:37:11.101Z,97961.93
2018-07-02T05:38:14.161Z,97949.56
2018-07-02T05:39:17.055Z,97954.77
2018-07-02T05:40:20.322Z,97954.94
2018-07-02T05:41:23.417Z,97940.00
2018-07-02T05:42:27.149Z,97945.13
2018-07-02T05:43:30.129Z,97948.13
2018-07-02T05:44:33.263Z,97945.94
2018-07-02T05:45:37.400Z,97947.81
2018-07-02T05:46:40.963Z,97951.25
2018-07-02T05:47:43.892Z,97950.87
2018-07-02T05:48:46.993Z,97948.72
2018-07-02T05:49:51.445Z,97941.47
2018-07-02T05:50:55.771Z,97946.09
2018-07-02T05:52:00.574Z,97944.56
2018-07-02T05:53:03.856Z,97949.66
2018-07-02T05:54:08.081Z,97941.41
2018-07-02T05:55:11.808Z,97942.69
2018-07-02T05:56:15.645Z,97939.36
2018-07-02T05:57:21.088Z,97938.98
2018-07-02T05:58:24.044Z,97939.59
2018-07-02T05:59:27.978Z,97938.13
2018-07-02T06:00:30.971Z,97939.19
2018-07-02T06:01:33.948Z,97941.05
2018-07-02T06:02:36.828Z,97940.94
2018-07-02T06:03:41.556Z,97945.17
2018-07-02T06:04:45.457Z,97946.77
2018-07-02T06:05:51.020Z,97942.75
2018-07-02T06:06:53.917Z,97938.67
2018-07-02T06:07:57.225Z,97937.21
2018-07-02T06:09:00.150Z,97940.39
2018-07-02T06:10:04.075Z,97949.55
2018-07-02T06:11:07.065Z,97947.66
2018-07-02T06:12:10.983Z,97950.52
2018-07-02T06:13:15.264Z,97947.89
2018-07-02T06:14:18.213Z,97945.73
2018-07-02T06:15:22.858Z,97953.78
2018-07-02T06:16:27.965Z,97952.59
2018-07-02T06:17:32.594Z,97949.45
2018-07-02T06:18:35.442Z,97953.80
2018-07-02T06:19:39.623Z,97943.67
2018-07-02T06:20:45.168Z,97944.22
2018-07-02T06:21:49.398Z,97946.64
2018-07-02T06:22:55.171Z,97944.07
2018-07-02T06:23:58.516Z,97938.45
2018-07-02T06:25:07.721Z,97935.34
2018-07-02T06:26:16.552Z,97934.23
2018-07-02T06:27:21.672Z,97936.37
2018-07-02T06:28:25.034Z,97936.37
2018-07-02T06:29:28.765Z,97934.44
2018-07-02T06:30:49.327Z,97935.47
2018-07-02T06:31:55.619Z,97937.75
2018-07-02T06:33:01.567Z,97937.54
2018-07-02T06:34:12.165Z,97931.93
2018-07-02T06:35:23.927Z,97934.65
2018-07-02T06:36:29.977Z,97932.28
2018-07-02T06:37:34.431Z,97937.16
2018-07-02T06:38:37.361Z,97939.00
2018-07-02T06:39:40.376Z,97937.38
2018-07-02T06:40:43.511Z,97945.13
2018-07-02T06:41:49.434Z,97943.53
2018-07-02T06:42:57.002Z,97942.84
2018-07-02T06:44:00.173Z,97947.15
2018-07-02T06:45:03.746Z,97948.66
2018-07-02T06:46:07.541Z,97946.68
2018-07-02T06:47:11.351Z,97946.94
2018-07-02T06:48:14.885Z,97944.11
2018-07-02T06:49:18.907Z,97945.98
2018-07-02T06:50:21.976Z,97949.16
2018-07-02T06:51:25.050Z,97951.07
2018-07-02T06:52:28.301Z,97934.45
2018-07-02T06:53:31.679Z,97943.26
2018-07-02T06:54:37.417Z,97946.76
2018-07-02T06:55:41.194Z,97955.85
2018-07-02T06:56:45.743Z,97944.66
2018-07-02T06:57:49.013Z,97956.30
2018-07-02T06:58:56.433Z,97956.06
2018-07-02T07:01:10.804Z,97953.55
2018-07-02T07:02:14.671Z,97967.82
2018-07-02T07:03:18.942Z,97957.03
2018-07-02T07:04:21.943Z,97955.77
2018-07-02T07:05:25.026Z,97957.41
2018-07-02T07:06:28.914Z,97959.43
2018-07-02T07:07:31.991Z,97966.30
2018-07-02T07:08:37.888Z,97957.75
2018-07-02T07:09:41.154Z,97967.34
2018-07-02T07:10:45.139Z,97967.72
2018-07-02T07:11:48.467Z,97964.82
2018-07-02T07:12:51.870Z,97967.04
2018-07-02T07:13:55.247Z,97961.91
2018-07-02T07:14:58.346Z,97966.34
2018-07-02T07:16:01.513Z,97954.61
2018-07-02T07:17:08.365Z,97962.97
2018-07-02T07:18:12.584Z,97960.73
2018-07-02T07:19:20.926Z,97963.27
2018-07-02T07:20:24.036Z,97970.38
2018-07-02T07:21:27.036Z,97965.71
2018-07-02T07:22:30.120Z,97957.44
2018-07-02T07:23:33.282Z,97958.37
2018-07-02T07:24:36.652Z,97977.01
2018-07-02T07:25:40.659Z,97965.36
2018-07-02T07:26:43.775Z,97957.11
2018-07-02T07:27:46.827Z,97952.89
2018-07-02T07:28:49.813Z,97953.93
2018-07-02T07:29:53.369Z,97952.73
2018-07-02T07:30:56.290Z,97962.89
2018-07-02T07:32:00.783Z,97950.72
2018-07-02T07:33:09.192Z,97958.85
2018-07-02T07:34:12.323Z,97960.17
2018-07-02T07:35:20.751Z,97959.52
2018-07-02T07:36:34.632Z,97963.34
2018-07-02T07:37:37.586Z,97969.02
2018-07-02T07:38:40.990Z,97976.53
2018-07-02T07:39:43.959Z,97974.63
2018-07-02T07:40:47.202Z,97970.75
2018-07-02T07:41:50.345Z,97971.76
2018-07-02T07:42:59.658Z,97974.08
2018-07-02T07:44:04.346Z,97972.48
2018-07-02T07:45:14.538Z,97972.50
2018-07-02T07:46:21.848Z,97976.23
2018-07-02T07:48:41.178Z,97977.20
2018-07-02T07:49:44.808Z,97971.33
2018-07-02T07:50:48.611Z,97969.36
2018-07-02T07:51:51.925Z,97971.14
2018-07-02T07:52:55.080Z,97973.27
2018-07-02T07:54:00.353Z,97969.09
2018-07-02T07:55:04.613Z,97976.40
2018-07-02T07:56:10.777Z,97979.23
2018-07-02T07:57:21.984Z,97973.13
2018-07-02T07:58:26.275Z,97972.38
2018-07-02T07:59:35.646Z,97976.34
2018-07-02T08:00:38.933Z,97975.52
2018-07-02T08:01:42.380Z,97975.52
2018-07-02T08:02:46.836Z,97975.31
2018-07-02T08:03:50.821Z,97979.69
2018-07-02T08:04:53.747Z,97984.78
2018-07-02T08:06:00.853Z,97975.07
2018-07-02T08:07:08.666Z,97965.78
2018-07-02T08:08:11.717Z,97965.63
2018-07-02T08:09:17.489Z,97971.77
2018-07-02T08:10:24.015Z,97969.41
2018-07-02T08:12:43.227Z,97967.41
2018-07-02T08:13:47.350Z,97960.73
2018-07-02T08:16:11.456Z,97959.94
2018-07-02T08:17:15.319Z,97952.36
2018-07-02T08:18:22.231Z,97950.69
2018-07-02T08:19:29.837Z,97946.27
2018-07-02T08:20:34.001Z,97956.52
2018-07-02T08:21:44.996Z,97962.41
2018-07-02T08:22:48.118Z,97960.68
2018-07-02T08:25:23.997Z,97958.23
2018-07-02T08:27:48.307Z,97963.45
2018-07-02T08:28:56.903Z,97963.59
2018-07-02T08:30:04.771Z,97967.44
2018-07-02T08:31:10.000Z,97961.73
2018-07-02T08:32:18.382Z,97947.09
2018-07-02T08:33:21.674Z,97959.30
2018-07-02T08:34:25.614Z,97965.73
2018-07-02T08:35:29.446Z,97961.23
2018-07-02T08:36:34.023Z,97960.49
2018-07-02T08:39:00.236Z,97958.01
2018-07-02T08:40:08.128Z,97951.34
2018-07-02T08:41:15.699Z,97950.81
2018-07-02T08:42:19.772Z,97958.75
2018-07-02T08:43:23.360Z,97954.79
2018-07-02T08:44:26.541Z,97951.22
2018-07-02T08:45:30.131Z,97952.36
2018-07-02T08:46:33.696Z,97958.34
2018-07-02T08:47:36.953Z,97946.25
2018-07-02T08:48:41.104Z,97956.19
2018-07-02T08:50:57.174Z,97953.47
2018-07-02T08:52:12.286Z,97961.88
2018-07-02T08:53:19.086Z,97957.03
2018-07-02T08:54:23.873Z,97947.80
2018-07-02T08:55:28.097Z,97960.39
2018-07-02T08:56:32.775Z,97945.58
2018-07-02T08:57:37.891Z,97956.83
2018-07-02T08:58:41.269Z,97957.54
2018-07-02T08:59:50.329Z,97955.13
2018-07-02T09:00:55.512Z,97961.39
2018-07-02T09:02:01.424Z,97960.07
2018-07-02T09:03:05.280Z,97955.14
2018-07-02T09:04:08.860Z,97946.05
2018-07-02T09:06:22.162Z,97950.00
2018-07-02T09:07:31.937Z,97954.68
2018-07-02T09:08:35.202Z,97950.13
2018-07-02T09:09:39.202Z,97945.89
2018-07-02T09:10:42.998Z,97960.50
2018-07-02T09:11:48.264Z,97962.23
2018-07-02T09:12:51.909Z,97961.86
2018-07-02T09:13:55.682Z,97958.14
2018-07-02T09:15:00.160Z,97951.59
2018-07-02T09:16:04.049Z,97960.70
2018-07-02T09:17:12.165Z,97958.31
2018-07-02T09:18:16.831Z,97957.13
2018-07-02T09:19:21.286Z,97966.83
2018-07-02T09:20:25.456Z,97962.06
2018-07-02T09:21:35.844Z,97958.88
2018-07-02T09:22:39.324Z,97967.34
2018-07-02T09:23:46.903Z,97951.55
2018-07-02T09:24:50.465Z,97959.31
2018-07-02T09:25:55.373Z,97952.57
2018-07-02T09:27:00.720Z,97954.31
2018-07-02T09:28:05.431Z,97954.62
2018-07-02T09:29:08.521Z,97951.71
2018-07-02T09:30:12.350Z,97954.48
2018-07-02T09:32:37.458Z,97948.72
2018-07-02T09:33:40.927Z,97953.66
2018-07-02T09:34:44.618Z,97952.45
2018-07-02T09:35:48.297Z,97947.62
2018-07-02T09:36:53.336Z,97947.15
2018-07-02T09:37:58.271Z,97950.86
2018-07-02T09:39:05.481Z,97954.62
2018-07-02T09:40:10.380Z,97949.44
2018-07-02T09:41:15.394Z,97950.09
2018-07-02T09:42:24.593Z,97948.55
2018-07-02T09:43:31.620Z,97952.26
2018-07-02T09:44:36.246Z,97955.55
2018-07-02T09:46:47.242Z,97957.60
2018-07-02T09:47:50.831Z,97959.17
2018-07-02T09:48:55.129Z,97957.00
2018-07-02T09:49:58.446Z,97951.23
2018-07-02T09:51:05.030Z,97954.69
2018-07-02T09:52:21.854Z,97953.62
2018-07-02T09:53:30.375Z,97953.66
2018-07-02T09:54:33.799Z,97960.62
2018-07-02T09:55:38.791Z,97964.83
2018-07-02T09:56:41.766Z,97964.17
2018-07-02T09:57:50.317Z,97968.75
2018-07-02T09:58:55.123Z,97966.39
2018-07-02T09:59:59.434Z,97961.95
2018-07-02T10:01:03.210Z,97969.61
2018-07-02T10:02:10.255Z,97967.79
2018-07-02T10:03:15.117Z,97962.26
2018-07-02T10:04:19.458Z,97961.44
2018-07-02T10:05:26.326Z,97957.87
2018-07-02T10:06:30.071Z,97966.93
2018-07-02T10:07:33.633Z,97962.94
2018-07-02T10:08:37.148Z,97967.49
2018-07-02T10:09:40.310Z,97963.67
2018-07-02T10:10:43.824Z,97966.08
2018-07-02T10:11:48.069Z,97963.27
2018-07-02T10:12:52.563Z,97959.21
2018-07-02T10:13:55.573Z,97958.34
2018-07-02T10:14:59.852Z,97957.79
2018-07-02T10:16:03.901Z,97961.25
2018-07-02T10:17:06.967Z,97954.73
2018-07-02T10:18:10.464Z,97951.64
2018-07-02T10:19:13.624Z,97953.89
2018-07-02T10:20:18.130Z,97953.00
2018-07-02T10:21:26.250Z,97958.61
2018-07-02T10:22:29.317Z,97955.73
2018-07-02T10:23:37.335Z,97949.43
2018-07-02T10:24:39.684Z,97948.23
2018-07-02T10:25:43.216Z,97946.63
2018-07-02T10:29:14.488Z,97942.89
2018-07-02T10:30:17.949Z,97942.45
2018-07-02T10:31:21.759Z,97938.33
2018-07-02T10:32:25.429Z,97938.88
2018-07-02T10:33:29.538Z,97939.87
2018-07-02T10:34:33.660Z,97939.08
2018-07-02T10:35:37.459Z,97941.27
2018-07-02T10:36:42.025Z,97941.75
2018-07-02T10:37:51.896Z,97946.28
2018-07-02T10:38:57.704Z,97942.95
2018-07-02T10:40:01.748Z,97939.98
2018-07-02T10:43:44.890Z,97933.70
2018-07-02T10:44:47.870Z,97934.67
2018-07-02T10:45:51.165Z,97931.20
2018-07-02T10:46:56.838Z,97936.80
2018-07-02T10:48:01.189Z,97931.70
2018-07-02T10:49:11.307Z,97929.20
2018-07-02T10:50:14.524Z,97935.22
2018-07-02T10:51:19.121Z,97930.75
2018-07-02T10:57:26.184Z,97937.09
2018-07-02T10:58:36.430Z,97930.16
2018-07-02T10:59:48.676Z,97929.13
2018-07-02T11:00:52.354Z,97927.45
2018-07-02T11:01:58.615Z,97931.51
2018-07-02T11:03:02.241Z,97923.35
2018-07-02T11:04:09.427Z,97922.26
2018-07-02T11:05:14.422Z,97908.70
2018-07-02T11:06:19.253Z,97913.14
2018-07-02T11:07:23.567Z,97921.17
2018-07-02T11:08:26.737Z,97927.84
2018-07-02T11:09:33.102Z,97925.84
2018-07-02T11:10:41.363Z,97922.75
2018-07-02T11:11:54.891Z,97922.98
2018-07-02T11:13:05.454Z,97920.45
2018-07-02T11:14:09.321Z,97915.03
2018-07-02T11:15:14.739Z,97915.72
2018-07-02T11:16:22.029Z,97922.38
2018-07-02T11:18:47.945Z,97920.49
2018-07-02T11:19:52.682Z,97922.47
2018-07-02T11:21:05.329Z,97918.78
2018-07-02T11:22:09.733Z,97919.32
2018-07-02T11:23:17.478Z,97918.01
2018-07-02T11:24:22.395Z,97916.77
2018-07-02T11:25:35.149Z,97921.02
2018-07-02T11:26:45.507Z,97922.59
2018-07-02T11:27:49.599Z,97916.41
2018-07-02T11:28:54.296Z,97919.30
2018-07-02T11:30:10.145Z,97908.03
2018-07-02T11:31:14.813Z,97908.52
2018-07-02T11:32:19.324Z,97906.52
2018-07-02T11:33:22.272Z,97905.92
2018-07-02T11:34:27.268Z,97904.84
2018-07-02T11:35:31.432Z,97906.39
2018-07-02T11:36:35.938Z,97907.44
2018-07-02T11:37:39.252Z,97900.88
2018-07-02T11:38:44.509Z,97905.19
2018-07-02T11:39:48.298Z,97919.11
2018-07-02T11:40:52.750Z,97906.84
2018-07-02T11:41:59.246Z,97909.11
2018-07-02T11:44:14.668Z,97905.05
2018-07-02T11:45:26.915Z,97904.67
2018-07-02T12:20:40.187Z,97896.31
2018-07-02T12:21:44.230Z,97896.27
2018-07-02T12:24:06.103Z,97889.97
2018-07-02T12:30:11.040Z,97889.38
2018-07-02T12:31:28.970Z,97896.47
2018-07-02T12:32:37.462Z,97894.32
2018-07-02T12:34:59.614Z,97891.78
2018-07-02T12:53:23.560Z,97884.63
2018-07-02T13:08:02.143Z,97873.30
2018-07-02T13:53:51.540Z,97844.39
2018-07-02T13:54:56.795Z,97844.30
2018-07-02T13:56:02.868Z,97842.86
2018-07-02T13:57:06.185Z,97840.64
2018-07-02T13:58:18.691Z,97842.13
2018-07-02T13:59:23.126Z,97840.32
2018-07-02T14:00:32.898Z,97836.45
2018-07-02T14:01:36.543Z,97837.73
2018-07-02T14:03:49.114Z,97838.31
2018-07-02T14:05:13.199Z,97839.52
2018-07-02T14:07:36.303Z,97842.17
2018-07-02T14:08:42.441Z,97836.08
2018-07-02T14:09:47.857Z,97831.21
2018-07-02T14:12:02.480Z,97839.82
2018-07-02T14:13:09.956Z,97838.81
2018-07-02T14:14:13.911Z,97836.89
2018-07-02T14:15:24.335Z,97838.47
2018-07-02T14:16:30.119Z,97834.67
2018-07-02T14:17:37.459Z,97830.42
2018-07-02T14:18:43.381Z,97835.09
2018-07-02T14:19:47.686Z,97834.20
2018-07-02T14:25:51.077Z,97826.41
2018-07-02T14:26:54.634Z,97835.41
2018-07-02T14:28:00.406Z,97836.41
2018-07-02T14:29:05.299Z,97835.27
2018-07-02T14:30:17.848Z,97837.60
2018-07-02T14:32:34.850Z,97833.69
2018-07-02T14:33:37.868Z,97842.80
2018-07-02T14:34:42.813Z,97834.28
2018-07-02T14:35:46.405Z,97836.73
2018-07-02T14:36:49.391Z,97839.07
2018-07-02T14:37:58.397Z,97836.03
2018-07-02T14:39:06.040Z,97833.53
2018-07-02T14:40:10.690Z,97841.95
2018-07-02T14:41:17.773Z,97835.31
2018-07-02T14:42:21.222Z,97835.25
2018-07-02T14:43:27.120Z,97830.55
2018-07-02T14:44:43.626Z,97822.10
2018-07-02T14:45:47.054Z,97822.13
2018-07-02T14:46:52.548Z,97818.77
2018-07-02T14:47:58.718Z,97816.64
2018-07-02T14:49:02.835Z,97828.36
2018-07-02T14:50:07.004Z,97828.08
2018-07-02T14:51:25.967Z,97820.36
2018-07-02T14:52:30.402Z,97819.70
2018-07-02T14:53:33.505Z,97812.66
2018-07-02T14:59:39.923Z,97816.23
2018-07-02T15:00:43.800Z,97800.98
2018-07-02T15:01:52.080Z,97806.94
2018-07-02T15:02:55.650Z,97798.23
2018-07-02T15:03:58.599Z,97801.22
2018-07-02T15:05:02.333Z,97796.67
2018-07-02T15:07:37.158Z,97793.14
2018-07-02T15:08:45.972Z,97798.95
2018-07-02T15:09:50.612Z,97798.45
2018-07-02T15:10:56.335Z,97790.36
2018-07-02T15:12:04.806Z,97803.99
2018-07-02T15:13:10.292Z,97799.25
2018-07-02T15:14:13.592Z,97794.31
2018-07-02T15:15:24.992Z,97790.57
2018-07-02T15:16:33.547Z,97788.34
2018-07-02T15:17:37.241Z,97786.67
2018-07-02T15:18:46.620Z,97784.64
2018-07-02T15:19:49.932Z,97789.69
2018-07-02T15:20:53.048Z,97790.29
2018-07-02T15:22:01.573Z,97788.37
2018-07-02T15:23:04.897Z,97787.88
2018-07-02T15:24:09.455Z,97787.30
2018-07-02T15:25:14.414Z,97790.75
2018-07-02T15:26:18.835Z,97788.56
2018-07-02T15:27:21.796Z,97794.39
2018-07-02T15:28:26.773Z,97791.66
2018-07-02T15:29:38.686Z,97789.62
2018-07-02T15:30:43.436Z,97792.63
2018-07-02T15:32:56.839Z,97794.12
2018-07-02T15:34:08.110Z,97792.13